createdAt,value
2022-12-09T00:01:16.257Z,97802.50
2022-12-09T00:03:44.679Z,97795.91
2022-12-09T00:06:24.070Z,97791.84
2022-12-09T00:08:52.766Z,97793.97
2022-12-09T00:11:21.513Z,97794.59
2022-12-09T00:13:50.261Z,97800.13
2022-12-09T00:16:18.225Z,97785.59
2022-12-09T00:18:46.390Z,97795.44
2022-12-09T00:21:24.643Z,97792.41
2022-12-09T00:23:54.377Z,97770.75
2022-12-09T00:26:23.573Z,97781.13
2022-12-09T00:28:52.388Z,97782.19
2022-12-09T00:31:24.577Z,97784.38
2022-12-09T00:33:54.325Z,97775.06
2022-12-09T00:36:24.218Z,97777.59
2022-12-09T00:38:52.908Z,97781.38
2022-12-09T00:41:21.615Z,97773.22
2022-12-09T00:43:51.943Z,97779.41
2022-12-09T00:46:20.221Z,97777.53
2022-12-09T00:48:48.281Z,97779.41
2022-12-09T00:51:19.608Z,97774.03
2022-12-09T00:53:48.386Z,97781.38
2022-12-09T00:56:16.467Z,97784.38
2022-12-09T00:58:44.187Z,97784.69
2022-12-09T01:01:12.000Z,97783.63
2022-12-09T01:03:40.738Z,97789.88
2022-12-09T01:06:13.303Z,97793.09
2022-12-09T01:08:42.890Z,97789.34
2022-12-09T01:11:17.462Z,97789.66
2022-12-09T01:13:47.088Z,97791.50
2022-12-09T01:16:20.499Z,97771.00
2022-12-09T01:18:50.197Z,97788.69
2022-12-09T01:21:18.356Z,97791.13
2022-12-09T01:23:46.514Z,97783.78
2022-12-09T01:26:14.242Z,97787.66
2022-12-09T01:28:42.022Z,97773.69
2022-12-09T01:31:12.577Z,97779.69
2022-12-09T01:33:40.873Z,97775.91
2022-12-09T01:36:10.771Z,97778.38
2022-12-09T01:38:39.071Z,97776.09
2022-12-09T01:41:07.242Z,97774.25
2022-12-09T01:43:35.239Z,97778.09
2022-12-09T01:46:03.486Z,97773.78
2022-12-09T01:48:35.112Z,97761.16
2022-12-09T01:51:17.639Z,97774.50
2022-12-09T01:53:47.275Z,97764.09
2022-12-09T01:56:29.322Z,97725.09
2022-12-09T01:59:03.615Z,97748.22
2022-12-09T02:01:32.070Z,97752.06
2022-12-09T02:04:01.114Z,97753.75
2022-12-09T02:06:30.335Z,97750.50
2022-12-09T02:08:59.984Z,97732.19
2022-12-09T02:12:07.325Z,97738.41
2022-12-09T02:15:07.541Z,97734.84
2022-12-09T02:18:03.061Z,97738.97
2022-12-09T02:20:33.880Z,97730.28
2022-12-09T02:23:23.003Z,97734.44
2022-12-09T02:26:09.017Z,97726.53
2022-12-09T02:29:05.679Z,97726.56
2022-12-09T02:31:51.808Z,97728.97
2022-12-09T02:34:23.475Z,97712.41
2022-12-09T02:37:20.394Z,97705.88
2022-12-09T02:40:07.320Z,97710.78
2022-12-09T02:42:41.253Z,97709.13
2022-12-09T02:45:11.855Z,97707.38
2022-12-09T02:47:49.061Z,97706.31
2022-12-09T02:50:21.659Z,97703.25
2022-12-09T02:52:52.748Z,97698.13
2022-12-09T02:55:22.350Z,97701.97
2022-12-09T02:57:56.255Z,97692.44
2022-12-09T03:00:24.422Z,97666.66
2022-12-09T03:02:56.354Z,97614.03
2022-12-09T03:05:52.742Z,97672.31
2022-12-09T03:08:45.875Z,97673.75
2022-12-09T03:11:19.552Z,97661.41
2022-12-09T03:14:00.166Z,97673.41
2022-12-09T03:16:36.002Z,97666.22
2022-12-09T03:19:18.006Z,97670.56
2022-12-09T03:21:48.068Z,97670.56
2022-12-09T03:24:23.194Z,97663.72
2022-12-09T03:26:53.192Z,97664.28
2022-12-09T03:29:26.103Z,97663.47
2022-12-09T03:31:57.079Z,97657.28
2022-12-09T03:34:31.075Z,97649.66
2022-12-09T03:36:59.514Z,97648.06
2022-12-09T03:39:31.486Z,97651.00
2022-12-09T03:42:03.038Z,97655.72
2022-12-09T03:44:40.811Z,97647.81
2022-12-09T03:47:10.705Z,97664.38
2022-12-09T03:49:40.391Z,97650.78
2022-12-09T03:52:23.892Z,97651.75
2022-12-09T03:54:58.892Z,97652.91
2022-12-09T03:57:27.276Z,97655.16
2022-12-09T03:59:59.494Z,97626.22
2022-12-09T04:02:28.174Z,97631.97
2022-12-09T04:04:56.221Z,97636.78
2022-12-09T04:07:24.355Z,97646.66
2022-12-09T04:09:52.393Z,97632.03
2022-12-09T04:12:20.496Z,97653.56
2022-12-09T04:14:48.471Z,97654.91
2022-12-09T04:17:16.219Z,97649.63
2022-12-09T04:19:44.017Z,97646.34
2022-12-09T04:22:11.975Z,97646.66
2022-12-09T04:24:39.945Z,97646.47
2022-12-09T04:27:08.529Z,97643.72
2022-12-09T04:29:36.481Z,97633.31
2022-12-09T04:32:04.432Z,97649.13
2022-12-09T04:34:34.148Z,97643.81
2022-12-09T04:37:01.904Z,97639.72
2022-12-09T04:39:29.682Z,97633.72
2022-12-09T04:41:57.526Z,97635.34
2022-12-09T04:44:25.351Z,97631.19
2022-12-09T04:46:53.288Z,97633.63
2022-12-09T04:49:21.227Z,97615.88
2022-12-09T04:51:49.107Z,97615.84
2022-12-09T04:54:17.826Z,97605.50
2022-12-09T04:56:45.663Z,97589.38
2022-12-09T04:59:14.732Z,97582.47
2022-12-09T05:01:42.956Z,97574.84
2022-12-09T05:04:11.289Z,97560.19
2022-12-09T05:06:39.568Z,97579.19
2022-12-09T05:09:12.415Z,97575.97
2022-12-09T05:11:41.010Z,97576.78
2022-12-09T05:14:09.044Z,97580.09
2022-12-09T05:16:37.244Z,97585.84
2022-12-09T05:19:05.416Z,97582.63
2022-12-09T05:21:33.554Z,97583.72
2022-12-09T05:24:03.839Z,97581.25
2022-12-09T05:26:31.817Z,97575.75
2022-12-09T05:28:59.612Z,97574.66
2022-12-09T05:31:27.629Z,97564.31
2022-12-09T05:33:55.609Z,97551.09
2022-12-09T05:36:27.796Z,97567.06
2022-12-09T05:38:56.506Z,97580.78
2022-12-09T05:41:25.340Z,97573.50
2022-12-09T05:43:53.377Z,97549.53
2022-12-09T05:46:21.884Z,97572.53
2022-12-09T05:48:50.745Z,97569.84
2022-12-09T05:51:27.352Z,97582.88
2022-12-09T05:53:56.710Z,97572.66
2022-12-09T05:56:26.048Z,97561.22
2022-12-09T05:58:55.627Z,97561.16
2022-12-09T06:01:24.481Z,97560.94
2022-12-09T06:03:54.177Z,97550.88
2022-12-09T06:06:26.514Z,97552.13
2022-12-09T06:08:59.685Z,97544.25
2022-12-09T06:11:28.850Z,97527.31
2022-12-09T06:13:57.096Z,97528.69
2022-12-09T06:16:26.048Z,97516.59
2022-12-09T06:18:54.344Z,97526.53
2022-12-09T06:21:22.962Z,97528.13
2022-12-09T06:23:51.557Z,97521.66
2022-12-09T06:26:26.041Z,97536.31
2022-12-09T06:28:55.446Z,97534.06
2022-12-09T06:31:24.007Z,97540.91
2022-12-09T06:33:55.267Z,97553.94
2022-12-09T06:36:24.244Z,97559.25
2022-12-09T06:38:52.614Z,97559.94
2022-12-09T06:41:20.673Z,97550.91
2022-12-09T06:43:48.790Z,97539.69
2022-12-09T06:46:23.830Z,97530.66
2022-12-09T06:48:52.910Z,97532.78
2022-12-09T06:51:22.215Z,97529.50
2022-12-09T06:53:50.099Z,97546.56
2022-12-09T06:56:18.310Z,97540.28
2022-12-09T06:58:47.572Z,97527.06
2022-12-09T07:01:23.808Z,97508.31
2022-12-09T07:03:57.547Z,97519.78
2022-12-09T07:06:33.017Z,97536.25
2022-12-09T07:09:05.414Z,97524.50
2022-12-09T07:11:33.619Z,97506.63
2022-12-09T07:14:02.158Z,97508.78
2022-12-09T07:16:30.323Z,97510.53
2022-12-09T07:18:58.540Z,97520.94
2022-12-09T07:21:26.953Z,97512.63
2022-12-09T07:23:55.535Z,97499.19
2022-12-09T07:26:23.722Z,97492.31
2022-12-09T07:28:52.038Z,97497.22
2022-12-09T07:31:27.836Z,97506.63
2022-12-09T07:33:58.119Z,97513.09
2022-12-09T07:36:30.253Z,97515.28
2022-12-09T07:39:02.354Z,97515.31
2022-12-09T07:41:30.979Z,97513.16
2022-12-09T07:43:59.212Z,97521.31
2022-12-09T07:46:27.514Z,97507.31
2022-12-09T07:48:57.349Z,97482.19
2022-12-09T07:51:25.976Z,97474.41
2022-12-09T07:53:54.824Z,97479.72
2022-12-09T07:56:24.037Z,97474.53
2022-12-09T07:58:53.689Z,97483.72
2022-12-09T08:01:28.474Z,97479.28
2022-12-09T08:03:57.273Z,97474.63
2022-12-09T08:06:28.783Z,97473.22
2022-12-09T08:09:01.818Z,97466.94
2022-12-09T08:11:32.334Z,97451.81
2022-12-09T08:14:08.859Z,97432.50
2022-12-09T08:16:39.342Z,97439.44
2022-12-09T08:19:07.329Z,97439.91
2022-12-09T08:21:35.985Z,97437.47
2022-12-09T08:24:07.845Z,97443.16
2022-12-09T08:26:37.610Z,97439.56
2022-12-09T08:29:12.214Z,97423.63
2022-12-09T08:31:42.733Z,97428.38
2022-12-09T08:34:11.973Z,97408.19
2022-12-09T08:36:40.776Z,97415.22
2022-12-09T08:39:09.322Z,97394.81
2022-12-09T08:41:39.389Z,97404.66
2022-12-09T08:44:12.149Z,97402.94
2022-12-09T08:46:42.736Z,97403.47
2022-12-09T08:49:11.794Z,97402.28
2022-12-09T08:51:39.925Z,97402.50
2022-12-09T08:54:07.898Z,97409.69
2022-12-09T08:56:36.070Z,97399.03
2022-12-09T08:59:04.784Z,97401.78
2022-12-09T09:01:35.852Z,97387.25
2022-12-09T09:04:10.581Z,97388.13
2022-12-09T09:06:41.774Z,97375.81
2022-12-09T09:09:12.536Z,97377.78
2022-12-09T09:11:42.216Z,97382.75
2022-12-09T09:14:12.472Z,97383.34
2022-12-09T09:16:43.349Z,97378.97
2022-12-09T09:19:19.548Z,97396.44
2022-12-09T09:21:47.942Z,97364.03
2022-12-09T09:24:19.220Z,97386.75
2022-12-09T09:26:48.496Z,97371.50
2022-12-09T09:29:18.961Z,97363.06
2022-12-09T09:31:48.630Z,97363.56
2022-12-09T09:34:19.169Z,97369.94
2022-12-09T09:36:47.603Z,97348.19
2022-12-09T09:39:16.018Z,97361.34
2022-12-09T09:41:51.686Z,97354.84
2022-12-09T09:44:24.892Z,97351.81
2022-12-09T09:46:54.515Z,97349.00
2022-12-09T09:49:31.816Z,97339.09
2022-12-09T09:52:04.548Z,97337.22
2022-12-09T09:54:33.054Z,97338.41
2022-12-09T09:57:07.220Z,97340.56
2022-12-09T09:59:54.076Z,97319.97
2022-12-09T10:02:51.897Z,97319.56
2022-12-09T10:05:56.426Z,97314.75
2022-12-09T10:08:39.953Z,97294.81
2022-12-09T10:11:29.918Z,97302.13
2022-12-09T10:14:56.253Z,97298.66
2022-12-09T10:17:45.122Z,97294.06
2022-12-09T10:20:21.276Z,97266.41
2022-12-09T10:22:54.957Z,97266.53
2022-12-09T10:25:29.626Z,97274.41
2022-12-09T10:28:23.931Z,97270.34
2022-12-09T10:30:54.401Z,97267.59
2022-12-09T10:33:31.466Z,97285.66
2022-12-09T10:36:00.098Z,97258.72
2022-12-09T10:38:30.941Z,97256.28
2022-12-09T10:41:13.972Z,97252.78
2022-12-09T10:43:42.502Z,97259.38
2022-12-09T10:46:19.638Z,97274.59
2022-12-09T10:48:49.283Z,97259.38
2022-12-09T10:51:36.716Z,97254.25
2022-12-09T10:54:21.679Z,97260.66
2022-12-09T10:57:15.126Z,97252.50
2022-12-09T10:59:56.772Z,97255.59
2022-12-09T11:02:25.548Z,97248.19
2022-12-09T11:04:53.605Z,97251.84
2022-12-09T11:07:29.757Z,97229.72
2022-12-09T11:09:57.676Z,97256.38
2022-12-09T11:12:30.860Z,97249.69
2022-12-09T11:15:26.380Z,97219.38
2022-12-09T11:18:22.961Z,97222.91
2022-12-09T11:21:03.127Z,97214.28
2022-12-09T11:23:31.651Z,97202.22
2022-12-09T11:26:02.546Z,97202.28
2022-12-09T11:28:35.178Z,97198.72
2022-12-09T11:31:35.289Z,97197.56
2022-12-09T11:34:08.254Z,97181.44
2022-12-09T11:36:42.336Z,97183.78
2022-12-09T11:39:50.465Z,97184.78
2022-12-09T11:42:23.067Z,97182.38
2022-12-09T11:45:02.151Z,97174.75
2022-12-09T11:47:50.360Z,97155.09
2022-12-09T11:50:31.200Z,97138.91
2022-12-09T11:53:12.442Z,97123.16
2022-12-09T11:55:46.954Z,97129.75
2022-12-09T11:58:26.431Z,97129.63
2022-12-09T12:01:00.896Z,97123.66
2022-12-09T12:04:00.645Z,97104.50
2022-12-09T12:06:43.706Z,97101.09
2022-12-09T12:09:18.141Z,97027.25
2022-12-09T12:12:18.210Z,97091.09
2022-12-09T12:14:47.131Z,97076.19
2022-12-09T12:17:17.651Z,97058.75
2022-12-09T12:19:49.294Z,97039.50
2022-12-09T12:22:29.226Z,97036.03
2022-12-09T12:25:18.329Z,97045.69
2022-12-09T12:28:04.693Z,97039.59
2022-12-09T12:30:51.109Z,97033.91
2022-12-09T12:36:39.783Z,97023.66
2022-12-09T12:39:14.667Z,97019.72
2022-12-09T12:41:51.784Z,97017.09
2022-12-09T12:44:39.915Z,97020.13
2022-12-09T12:47:10.697Z,97002.88
2022-12-09T12:49:47.699Z,97013.56
2022-12-09T12:55:36.782Z,97012.84
2022-12-09T12:58:20.328Z,97014.53
2022-12-09T13:01:09.763Z,97012.72
2022-12-09T13:03:48.084Z,97003.19
2022-12-09T13:06:20.212Z,97006.41
2022-12-09T13:09:02.859Z,97024.19
2022-12-09T13:11:49.276Z,97009.06
2022-12-09T13:14:23.420Z,96989.41
2022-12-09T13:16:53.857Z,96987.78
2022-12-09T13:19:40.841Z,96981.69
2022-12-09T13:22:17.543Z,96977.03
2022-12-09T13:24:59.958Z,96985.84
2022-12-09T13:27:35.799Z,96977.53
2022-12-09T13:30:14.479Z,96967.00
2022-12-09T13:33:08.624Z,96973.91
2022-12-09T13:35:46.978Z,96965.47
2022-12-09T13:38:39.728Z,96980.38
2022-12-09T13:41:52.274Z,96977.34
2022-12-09T13:44:21.323Z,96962.13
2022-12-09T13:46:49.050Z,96972.75
2022-12-09T13:49:21.230Z,96971.13
2022-12-09T13:51:52.524Z,96985.66
2022-12-09T13:54:24.071Z,96974.28
2022-12-09T13:57:32.222Z,96967.31
2022-12-09T14:00:07.222Z,96957.88
2022-12-09T14:02:38.163Z,96952.69
2022-12-09T14:05:13.648Z,96954.94
2022-12-09T14:07:48.541Z,96950.66
2022-12-09T14:10:49.258Z,96957.88
2022-12-09T14:13:36.688Z,96951.78
2022-12-09T14:16:28.677Z,96956.44
2022-12-09T14:18:57.851Z,96958.69
2022-12-09T14:21:29.183Z,96959.78
2022-12-09T14:24:09.386Z,96978.66
2022-12-09T14:26:46.234Z,96963.97
2022-12-09T14:29:39.840Z,96947.03
2022-12-09T14:32:29.077Z,96955.13
2022-12-09T14:35:11.793Z,96941.94
2022-12-09T14:37:54.405Z,96936.97
2022-12-09T14:40:39.617Z,96926.03
2022-12-09T14:43:29.033Z,96924.53
2022-12-09T14:46:01.459Z,96927.06
2022-12-09T14:48:41.913Z,96906.19
2022-12-09T14:51:19.918Z,96908.59
2022-12-09T14:53:58.442Z,96897.16
2022-12-09T14:56:28.055Z,96895.13
2022-12-09T14:59:09.350Z,96888.56
2022-12-09T15:01:57.171Z,96879.72
2022-12-09T15:04:37.440Z,96881.47
2022-12-09T15:07:21.533Z,96902.25
2022-12-09T15:09:59.426Z,96890.06
2022-12-09T15:12:37.351Z,96909.91
2022-12-09T15:15:13.060Z,96919.06
2022-12-09T15:17:51.678Z,96937.81
2022-12-09T15:20:35.937Z,96933.16
2022-12-09T15:23:18.822Z,96901.94
2022-12-09T15:25:49.138Z,96921.47
2022-12-09T15:28:25.926Z,96891.47
2022-12-09T15:31:18.976Z,96894.84
2022-12-09T15:33:55.736Z,96912.66
2022-12-09T15:36:44.613Z,96925.63
2022-12-09T15:39:20.938Z,96929.06
2022-12-09T15:42:09.495Z,96889.66
2022-12-09T15:44:50.085Z,96864.91
2022-12-09T15:47:29.568Z,96892.91
2022-12-09T15:50:15.094Z,96890.56
2022-12-09T15:52:49.841Z,96901.00
2022-12-09T15:55:21.520Z,96914.38
2022-12-09T15:57:52.691Z,96897.66
2022-12-09T16:00:21.039Z,96884.06
2022-12-09T16:02:50.754Z,96884.19
2022-12-09T16:05:25.156Z,96894.53
2022-12-09T16:07:55.794Z,96897.34
2022-12-09T16:10:26.817Z,96878.41
2022-12-09T16:13:10.769Z,96866.94
2022-12-09T16:15:53.678Z,96874.44
2022-12-09T16:18:25.730Z,96881.72
2022-12-09T16:21:27.735Z,96895.41
2022-12-09T16:23:58.181Z,96873.63
2022-12-09T16:26:32.116Z,96891.66
2022-12-09T16:29:06.338Z,96840.78
2022-12-09T16:31:34.770Z,96832.56
2022-12-09T16:34:02.665Z,96941.97
2022-12-09T16:36:32.882Z,96792.84
2022-12-09T16:39:09.725Z,96866.34
2022-12-09T16:41:52.616Z,96869.97
2022-12-09T16:44:21.945Z,96843.31
2022-12-09T16:46:49.769Z,96883.47
2022-12-09T16:49:17.411Z,96873.03
2022-12-09T16:51:45.216Z,96833.72
2022-12-09T16:54:20.787Z,96832.78
2022-12-09T16:56:49.444Z,96841.22
2022-12-09T16:59:17.175Z,96852.38
2022-12-09T17:01:45.136Z,96856.28
2022-12-09T17:04:22.363Z,96837.84
2022-12-09T17:06:50.308Z,96840.81
2022-12-09T17:09:19.072Z,96837.53
2022-12-09T17:11:49.069Z,96840.28
2022-12-09T17:14:18.303Z,96864.41
2022-12-09T17:16:46.255Z,96841.59
2022-12-09T17:19:14.107Z,96832.44
2022-12-09T17:21:41.919Z,96831.31
2022-12-09T17:24:12.601Z,96846.94
2022-12-09T17:26:40.443Z,96801.84
2022-12-09T17:29:08.196Z,96812.03
2022-12-09T17:31:35.942Z,96813.41
2022-12-09T17:34:03.640Z,96815.56
2022-12-09T17:36:31.383Z,96817.00
2022-12-09T17:39:07.945Z,96802.91
2022-12-09T17:41:35.687Z,96820.94
2022-12-09T17:44:03.414Z,96809.50
2022-12-09T17:46:31.206Z,96806.31
2022-12-09T17:49:01.392Z,96821.50
2022-12-09T17:51:35.662Z,96818.28
2022-12-09T17:54:04.339Z,96785.09
2022-12-09T17:56:32.127Z,96793.75
2022-12-09T17:59:08.424Z,96801.16
2022-12-09T18:01:37.314Z,96789.41
2022-12-09T18:04:10.150Z,96775.34
2022-12-09T18:06:46.567Z,96770.91
2022-12-09T18:09:17.749Z,96762.97
2022-12-09T18:11:45.954Z,96768.63
2022-12-09T18:14:13.736Z,96769.59
2022-12-09T18:16:41.560Z,96771.84
2022-12-09T18:19:12.989Z,96761.13
2022-12-09T18:21:40.728Z,96767.00
2022-12-09T18:24:08.872Z,96772.59
2022-12-09T18:26:41.721Z,96791.69
2022-12-09T18:29:10.682Z,96797.00
2022-12-09T18:31:39.095Z,96799.09
2022-12-09T18:34:06.838Z,96799.59
2022-12-09T18:36:34.692Z,96807.13
2022-12-09T18:39:02.443Z,96788.63
2022-12-09T18:41:31.797Z,96823.44
2022-12-09T18:44:03.091Z,96803.81
2022-12-09T18:46:37.414Z,96848.66
2022-12-09T18:49:08.534Z,96895.28
2022-12-09T18:51:36.900Z,96930.69
2022-12-09T18:54:05.402Z,96897.13
2022-12-09T18:56:34.250Z,96833.53
2022-12-09T18:59:07.577Z,96771.91
2022-12-09T19:01:41.166Z,96782.66
2022-12-09T19:04:14.421Z,96798.66
2022-12-09T19:06:44.704Z,96780.81
2022-12-09T19:09:15.853Z,96792.06
2022-12-09T19:11:44.967Z,96756.41
2022-12-09T19:14:14.180Z,96813.16
2022-12-09T19:16:43.108Z,96813.91
2022-12-09T19:19:14.840Z,96809.31
2022-12-09T19:21:43.254Z,96808.31
2022-12-09T19:24:23.120Z,96814.66
2022-12-09T19:26:53.211Z,96785.84
2022-12-09T19:29:22.147Z,96788.53
2022-12-09T19:31:52.136Z,96796.44
2022-12-09T19:34:22.881Z,96796.94
2022-12-09T19:36:53.076Z,96810.19
2022-12-09T19:39:23.595Z,96810.19
2022-12-09T19:41:51.704Z,96820.03
2022-12-09T19:44:51.998Z,96805.69
2022-12-09T19:47:10.370Z,96806.09
2022-12-09T19:49:40.882Z,96815.75
2022-12-09T19:52:08.647Z,96822.84
2022-12-09T19:54:36.425Z,96821.13
2022-12-09T19:57:04.267Z,96794.38
2022-12-09T19:59:32.115Z,96798.41
2022-12-09T20:02:00.056Z,96746.09
2022-12-09T20:07:16.211Z,96813.25
2022-12-09T20:09:44.112Z,96810.19
2022-12-09T20:12:13.510Z,96820.16
2022-12-09T20:14:41.416Z,96836.72
2022-12-09T20:17:09.251Z,96812.56
2022-12-09T20:19:37.032Z,96812.75
2022-12-09T20:22:04.939Z,96819.38
2022-12-09T20:24:32.580Z,96811.31
2022-12-09T20:27:00.796Z,96819.47
2022-12-09T20:29:33.885Z,96836.50
2022-12-09T20:32:05.023Z,96839.81
2022-12-09T20:34:32.722Z,96845.97
2022-12-09T20:37:00.596Z,96836.94
2022-12-09T20:39:28.270Z,96830.97
2022-12-09T20:41:56.030Z,96819.34
2022-12-09T20:44:24.277Z,96844.03
2022-12-09T20:46:53.982Z,96842.25
2022-12-09T20:49:26.663Z,96838.03
2022-12-09T20:51:55.651Z,96848.53
2022-12-09T20:54:23.796Z,96833.09
2022-12-09T20:56:53.023Z,96824.00
2022-12-09T20:59:20.712Z,96839.59
2022-12-09T21:01:48.420Z,96842.44
2022-12-09T21:04:16.895Z,96842.00
2022-12-09T21:06:45.070Z,96818.75
2022-12-09T21:09:17.600Z,96827.94
2022-12-09T21:11:46.872Z,96816.16
2022-12-09T21:14:18.138Z,96840.69
2022-12-09T21:16:46.993Z,96832.19
2022-12-09T21:19:17.454Z,96841.47
2022-12-09T21:21:48.393Z,96836.28
2022-12-09T21:24:16.910Z,96857.75
2022-12-09T21:26:46.355Z,96858.25
2022-12-09T21:29:15.192Z,96866.97
2022-12-09T21:31:44.278Z,96853.97
2022-12-09T21:34:12.211Z,96852.03
2022-12-09T21:36:42.560Z,96835.41
2022-12-09T21:39:13.284Z,96836.53
2022-12-09T21:41:41.640Z,96839.59
2022-12-09T21:44:11.000Z,96852.56
2022-12-09T21:46:38.942Z,96865.22
2022-12-09T21:49:07.881Z,96866.34
2022-12-09T21:51:36.509Z,96871.06
2022-12-09T21:54:05.279Z,96881.53
2022-12-09T21:56:35.660Z,96856.13
2022-12-09T21:59:05.146Z,96873.00
2022-12-09T22:01:41.297Z,96873.13
2022-12-09T22:04:12.535Z,96868.97
2022-12-09T22:06:44.869Z,96871.53
2022-12-09T22:09:13.448Z,96875.88
2022-12-09T22:11:42.654Z,96873.63
2022-12-09T22:14:11.413Z,96872.19
2022-12-09T22:16:42.611Z,96877.69
2022-12-09T22:19:14.775Z,96880.78
2022-12-09T22:21:43.122Z,96887.28
2022-12-09T22:24:12.914Z,96873.56
2022-12-09T22:26:43.469Z,96874.69
2022-12-09T22:29:13.564Z,96874.00
2022-12-09T22:31:42.376Z,96874.00
2022-12-09T22:34:14.033Z,96868.03
2022-12-09T22:36:42.147Z,96867.84
2022-12-09T22:39:14.330Z,96879.75
2022-12-09T22:41:43.865Z,96874.09
2022-12-09T22:44:14.560Z,96880.72
2022-12-09T22:46:43.002Z,96888.81
2022-12-09T22:49:13.132Z,96876.56
2022-12-09T22:51:41.535Z,96865.41
2022-12-09T22:54:10.531Z,96863.97
2022-12-09T22:56:40.603Z,96860.44
2022-12-09T22:59:08.510Z,96857.63
2022-12-09T23:01:37.784Z,96863.78
2022-12-09T23:04:07.178Z,96873.44
2022-12-09T23:06:37.228Z,96861.25
2022-12-09T23:09:06.927Z,96846.59
2022-12-09T23:11:34.732Z,96849.47
2022-12-09T23:14:02.450Z,96845.56
2022-12-09T23:16:30.485Z,96865.06
2022-12-09T23:18:59.759Z,96869.50
2022-12-09T23:21:33.539Z,96877.19
2022-12-09T23:24:03.442Z,96879.78
2022-12-09T23:26:33.781Z,96872.69
2022-12-09T23:29:02.790Z,96860.47
2022-12-09T23:31:33.013Z,96863.72
2022-12-09T23:34:02.108Z,96862.81
2022-12-09T23:36:33.343Z,96863.84
2022-12-09T23:39:02.635Z,96870.25
2022-12-09T23:41:31.158Z,96878.53
2022-12-09T23:43:58.926Z,96867.97
2022-12-09T23:46:28.545Z,96874.09
2022-12-09T23:48:57.069Z,96870.44
2022-12-09T23:51:30.965Z,96867.97
2022-12-09T23:54:01.862Z,96866.16
2022-12-09T23:56:31.672Z,96864.59
2022-12-09T23:59:05.744Z,96872.25
